Time;durP1;ratioP1;P1;durP2;ratioP2;P2;SDS_P1;SDS_P2;PMS_P1;PMS_P2;Temp;Humidity;BMP_temperature;BMP_pressure;BME280_temperature;BME280_humidity;BME280_pressure;Samples;Min_cycle;Max_cycle;Signal;HPM_P1;HPM_P2
2022/05/29 00:00:45;;;;;;;32.77;4.70;;;11.00;22.70;;;;;;5026772;28;21006;-62
2022/05/29 00:03:12;;;;;;;30.63;4.63;;;10.90;22.50;;;;;;5028111;28;21003;-62
2022/05/29 00:05:40;;;;;;;31.87;5.27;;;10.90;22.50;;;;;;5026542;28;20469;-62
2022/05/29 00:08:07;;;;;;;28.17;5.00;;;10.90;22.80;;;;;;5025644;28;20515;-62
2022/05/29 00:10:38;;;;;;;31.70;5.53;;;10.90;23.30;;;;;;5027351;28;20470;-62
2022/05/29 00:16:29;;;;;;;32.83;5.10;;;10.80;24.20;;;;;;5007816;28;20507;-62
2022/05/29 00:18:56;;;;;;;31.37;4.00;;;10.80;23.60;;;;;;5007365;28;20459;-62
2022/05/29 00:21:23;;;;;;;31.73;5.13;;;10.80;23.50;;;;;;5007693;28;20952;-62
2022/05/29 00:23:50;;;;;;;30.30;5.20;;;10.70;23.10;;;;;;5007865;28;20998;-62
2022/05/29 00:26:18;;;;;;;33.50;4.87;;;10.70;24.10;;;;;;5008154;28;20814;-62
2022/05/29 00:28:45;;;;;;;31.97;5.67;;;10.70;23.40;;;;;;5007904;28;20479;-62
2022/05/29 00:31:13;;;;;;;31.77;4.40;;;10.70;23.40;;;;;;5007370;28;20480;-63
2022/05/29 00:33:41;;;;;;;30.00;4.87;;;10.60;23.60;;;;;;5021640;28;20470;-62
2022/05/29 00:36:09;;;;;;;31.10;4.80;;;10.60;23.90;;;;;;5007702;28;20810;-62
2022/05/29 00:38:40;;;;;;;31.30;6.07;;;10.60;24.20;;;;;;5007162;28;21201;-62
2022/05/29 00:41:17;;;;;;;32.23;5.63;;;10.50;24.20;;;;;;5027558;28;20972;-62
2022/05/29 00:43:43;;;;;;;34.60;5.27;;;10.40;24.50;;;;;;5026585;28;20470;-62
2022/05/29 00:46:12;;;;;;;30.10;5.07;;;10.40;24.60;;;;;;5025719;28;20462;-62
2022/05/29 00:48:39;;;;;;;30.73;5.60;;;10.40;24.90;;;;;;5027125;28;21061;-62
2022/05/29 00:51:11;;;;;;;31.87;6.10;;;10.40;24.80;;;;;;5026780;28;20466;-62
2022/05/29 00:53:39;;;;;;;31.40;5.43;;;10.30;25.00;;;;;;5026200;28;20451;-62
2022/05/29 00:56:11;;;;;;;30.07;5.43;;;10.30;25.30;;;;;;5007627;28;20451;-62
2022/05/29 00:58:38;;;;;;;30.00;5.57;;;10.30;25.30;;;;;;5007863;28;20472;-62
2022/05/29 01:01:05;;;;;;;31.33;5.73;;;10.30;25.50;;;;;;5019120;28;20475;-62
2022/05/29 01:03:32;;;;;;;32.87;6.53;;;10.20;25.80;;;;;;5011192;28;21095;-62
2022/05/29 01:05:59;;;;;;;30.30;5.60;;;10.20;26.00;;;;;;4994287;28;20471;-62
2022/05/29 01:08:31;;;;;;;29.00;5.13;;;10.20;26.10;;;;;;4991181;28;20624;-62
2022/05/29 01:11:11;;;;;;;28.63;5.53;;;10.10;26.60;;;;;;5001352;28;20456;-62
2022/05/29 01:13:46;;;;;;;30.47;6.00;;;10.10;27.00;;;;;;4997201;28;20992;-61
2022/05/29 01:16:21;;;;;;;29.40;6.10;;;10.10;27.00;;;;;;4991687;28;20889;-62
2022/05/29 01:18:57;;;;;;;29.70;6.30;;;10.10;27.20;;;;;;4991952;28;20857;-62
2022/05/29 01:21:45;;;;;;;32.43;5.37;;;10.10;27.50;;;;;;4991436;28;20457;-62
2022/05/29 01:24:33;;;;;;;28.70;5.90;;;10.10;27.90;;;;;;4991868;28;20453;-62
2022/05/29 01:27:24;;;;;;;29.90;5.70;;;10.10;27.80;;;;;;5005913;28;20484;-62
2022/05/29 01:30:01;;;;;;;30.03;7.27;;;10.10;27.80;;;;;;5011194;28;20488;-62
2022/05/29 01:32:37;;;;;;;29.30;6.30;;;10.10;28.30;;;;;;5028859;28;20474;-62
2022/05/29 01:35:11;;;;;;;30.60;5.97;;;10.10;28.50;;;;;;5028783;28;20838;-62
2022/05/29 01:37:47;;;;;;;32.40;6.03;;;10.10;28.30;;;;;;5030521;28;20486;-63
2022/05/29 01:40:23;;;;;;;30.23;5.50;;;10.20;28.30;;;;;;5029111;28;20512;-62
2022/05/29 01:42:54;;;;;;;30.47;5.47;;;10.10;28.70;;;;;;5030491;28;20466;-62
2022/05/29 01:45:32;;;;;;;30.20;5.07;;;10.10;28.40;;;;;;5029104;28;21163;-62
2022/05/29 01:48:08;;;;;;;29.37;6.07;;;10.10;29.00;;;;;;5028856;28;20485;-62
2022/05/29 01:50:41;;;;;;;31.00;5.47;;;10.00;29.30;;;;;;5011041;28;20444;-62
2022/05/29 01:53:14;;;;;;;29.10;5.50;;;10.00;29.50;;;;;;5010563;28;20447;-62
2022/05/29 01:55:45;;;;;;;30.90;6.40;;;9.90;30.10;;;;;;5010456;28;20459;-62
2022/05/29 01:58:15;;;;;;;27.53;5.60;;;9.80;30.10;;;;;;5010650;28;20479;-62
2022/05/29 02:00:45;;;;;;;26.83;6.30;;;9.70;30.40;;;;;;5009808;28;20473;-62
2022/05/29 02:03:17;;;;;;;30.17;6.00;;;9.70;30.60;;;;;;5010111;28;20448;-62
2022/05/29 02:05:47;;;;;;;30.73;7.77;;;9.70;30.70;;;;;;5008159;28;20447;-62
2022/05/29 02:08:18;;;;;;;28.23;6.50;;;9.60;31.00;;;;;;5009630;28;20521;-62
2022/05/29 02:10:49;;;;;;;28.73;5.90;;;9.60;31.10;;;;;;5010742;28;20977;-62
2022/05/29 02:13:21;;;;;;;31.17;6.37;;;9.60;31.10;;;;;;5009925;28;20952;-62
2022/05/29 02:15:55;;;;;;;27.53;6.10;;;9.60;30.90;;;;;;5008347;28;20857;-62
2022/05/29 02:18:28;;;;;;;30.10;6.70;;;9.60;31.10;;;;;;5011199;28;20510;-61
2022/05/29 02:21:02;;;;;;;29.20;6.50;;;9.60;31.30;;;;;;5009216;28;20448;-62
2022/05/29 02:23:34;;;;;;;30.00;6.10;;;9.60;31.20;;;;;;5008875;28;20460;-62
2022/05/29 02:26:02;;;;;;;33.67;5.97;;;9.60;31.00;;;;;;5008733;28;20465;-61
2022/05/29 02:28:33;;;;;;;28.70;6.40;;;9.60;31.10;;;;;;5009733;28;20570;-62
2022/05/29 02:31:16;;;;;;;28.70;5.60;;;9.60;31.30;;;;;;5009456;28;20499;-62
2022/05/29 02:33:51;;;;;;;30.80;6.60;;;9.50;31.50;;;;;;5010237;28;20494;-61
2022/05/29 02:36:29;;;;;;;30.00;6.30;;;9.50;31.60;;;;;;5006152;28;20460;-62
2022/05/29 02:39:17;;;;;;;32.60;6.37;;;9.50;31.50;;;;;;5009991;28;20440;-62
2022/05/29 02:41:54;;;;;;;31.23;6.73;;;9.50;31.60;;;;;;5005756;28;20833;-62
2022/05/29 02:44:33;;;;;;;31.33;6.13;;;9.40;31.60;;;;;;5009379;28;20462;-62
2022/05/29 02:47:15;;;;;;;31.40;6.33;;;9.40;31.60;;;;;;5008562;28;20514;-62
2022/05/29 02:49:51;;;;;;;31.03;5.73;;;9.40;31.60;;;;;;4995854;28;20484;-62
2022/05/29 02:52:19;;;;;;;31.80;6.13;;;9.30;31.60;;;;;;4989601;28;21074;-62
2022/05/29 02:54:46;;;;;;;29.67;6.17;;;9.30;32.10;;;;;;4989935;28;20496;-62
2022/05/29 02:57:13;;;;;;;30.07;5.97;;;9.20;32.10;;;;;;4989525;28;20849;-62
2022/05/29 02:59:41;;;;;;;28.87;6.23;;;9.20;32.10;;;;;;4998451;28;20996;-62
2022/05/29 03:02:17;;;;;;;30.20;6.40;;;9.20;31.80;;;;;;5006686;28;20476;-62
2022/05/29 03:04:56;;;;;;;32.23;6.30;;;9.10;32.20;;;;;;5010005;28;20465;-62
2022/05/29 03:07:33;;;;;;;29.97;5.90;;;9.10;32.20;;;;;;5009195;28;20475;-62
2022/05/29 03:10:12;;;;;;;31.60;7.27;;;9.10;32.10;;;;;;5007927;28;20534;-62
2022/05/29 03:12:47;;;;;;;33.73;6.50;;;9.00;32.20;;;;;;5008759;28;20503;-62
2022/05/29 03:15:24;;;;;;;32.37;6.20;;;9.00;32.20;;;;;;5009323;28;20451;-62
2022/05/29 03:18:04;;;;;;;32.80;5.90;;;9.00;32.30;;;;;;5009042;28;20475;-62
2022/05/29 03:20:41;;;;;;;35.33;6.83;;;9.00;32.20;;;;;;5007045;28;20460;-62
2022/05/29 03:23:17;;;;;;;33.20;6.43;;;8.90;32.40;;;;;;5009111;28;20528;-62
2022/05/29 03:25:47;;;;;;;34.30;7.37;;;8.90;32.30;;;;;;5003833;28;20459;-62
2022/05/29 03:28:32;;;;;;;34.10;6.60;;;9.00;32.00;;;;;;5009262;28;20571;-62
2022/05/29 03:31:04;;;;;;;34.93;6.50;;;8.90;32.30;;;;;;5005727;28;20480;-62
2022/05/29 03:33:32;;;;;;;33.07;6.10;;;9.00;32.00;;;;;;5008602;28;21074;-62
2022/05/29 03:36:07;;;;;;;32.00;5.67;;;9.00;31.70;;;;;;5008601;28;20810;-62
2022/05/29 03:38:34;;;;;;;31.37;6.03;;;9.00;31.50;;;;;;5009182;28;20500;-62
2022/05/29 03:41:03;;;;;;;32.00;6.97;;;9.00;32.00;;;;;;5007110;28;20636;-62
2022/05/29 03:43:30;;;;;;;33.27;7.30;;;9.10;31.40;;;;;;5002035;28;20469;-62
2022/05/29 03:45:57;;;;;;;34.40;6.70;;;9.10;31.40;;;;;;4988651;28;20469;-62
2022/05/29 03:48:24;;;;;;;32.73;6.00;;;9.10;31.40;;;;;;4988823;28;20480;-62
2022/05/29 03:50:52;;;;;;;32.50;7.53;;;9.10;31.40;;;;;;4989893;28;20457;-62
2022/05/29 03:53:19;;;;;;;33.13;5.80;;;9.10;31.30;;;;;;5008299;28;21130;-62
2022/05/29 03:55:45;;;;;;;33.60;6.20;;;9.20;31.10;;;;;;5004807;28;20470;-62
2022/05/29 03:58:12;;;;;;;32.37;5.87;;;9.20;31.20;;;;;;5008530;28;20491;-62
2022/05/29 04:00:39;;;;;;;31.70;6.60;;;9.20;30.90;;;;;;5006722;28;21251;-62
2022/05/29 04:03:06;;;;;;;33.53;6.10;;;9.30;30.80;;;;;;5006005;28;20459;-62
2022/05/29 04:05:32;;;;;;;32.53;5.57;;;9.30;30.80;;;;;;5007222;28;20456;-62
2022/05/29 04:13:33;;;;;;;33.80;6.00;;;9.40;30.60;;;;;;5001736;28;20492;-62
2022/05/29 04:16:00;;;;;;;33.10;6.40;;;9.60;30.50;;;;;;4988546;28;20456;-62
2022/05/29 04:18:27;;;;;;;33.00;5.50;;;9.60;30.30;;;;;;4988720;28;20491;-62
2022/05/29 04:20:54;;;;;;;33.27;5.70;;;9.70;30.10;;;;;;4988881;28;20460;-62
2022/05/29 04:23:22;;;;;;;33.13;5.23;;;9.70;30.50;;;;;;5006044;28;20467;-62
2022/05/29 04:25:49;;;;;;;32.83;5.07;;;9.80;30.60;;;;;;5008439;28;20455;-62
2022/05/29 04:28:17;;;;;;;33.60;5.97;;;10.30;30.80;;;;;;5007974;28;20471;-62
2022/05/29 04:30:44;;;;;;;32.63;4.00;;;11.20;28.70;;;;;;5000557;28;20471;-62
2022/05/29 04:33:12;;;;;;;38.03;4.33;;;12.20;25.80;;;;;;5007149;28;20471;-62
2022/05/29 04:35:41;;;;;;;31.40;3.77;;;13.20;23.00;;;;;;5014155;28;20977;-62
2022/05/29 04:38:09;;;;;;;34.90;4.37;;;14.10;20.60;;;;;;5008011;28;20498;-62
2022/05/29 04:40:39;;;;;;;32.30;3.97;;;14.70;18.90;;;;;;5008463;28;20460;-62
2022/05/29 04:43:05;;;;;;;33.67;4.70;;;15.30;17.70;;;;;;5008530;28;20469;-62
2022/05/29 04:45:33;;;;;;;33.23;4.40;;;15.30;17.20;;;;;;5027340;28;20455;-62
2022/05/29 04:47:59;;;;;;;33.03;4.37;;;14.70;17.80;;;;;;5027815;28;20471;-62
2022/05/29 04:50:27;;;;;;;33.93;3.70;;;14.50;18.80;;;;;;5026475;28;20475;-62
2022/05/29 04:52:53;;;;;;;31.17;3.83;;;15.40;18.20;;;;;;5027669;28;20462;-62
2022/05/29 04:55:20;;;;;;;31.97;3.90;;;16.60;16.40;;;;;;5026285;28;20474;-62
2022/05/29 04:57:48;;;;;;;32.30;3.53;;;17.70;14.20;;;;;;5027517;28;20491;-62
2022/05/29 05:00:16;;;;;;;31.50;3.30;;;18.80;12.40;;;;;;5018455;28;20448;-62
2022/05/29 05:02:43;;;;;;;30.43;3.40;;;19.70;10.60;;;;;;5012041;28;20463;-62
2022/05/29 05:05:11;;;;;;;29.67;3.40;;;20.50;8.90;;;;;;5026095;28;20812;-62
2022/05/29 05:07:38;;;;;;;30.97;3.23;;;21.30;7.90;;;;;;5027374;28;20486;-63
2022/05/29 05:10:10;;;;;;;29.60;3.20;;;22.10;6.30;;;;;;5027598;28;20482;-63
2022/05/29 05:12:36;;;;;;;28.73;3.20;;;22.80;5.10;;;;;;5027299;28;20455;-63
2022/05/29 05:15:05;;;;;;;29.00;3.00;;;23.50;4.00;;;;;;5025688;28;20477;-63
2022/05/29 05:17:32;;;;;;;30.37;3.23;;;24.20;2.90;;;;;;5026300;28;20478;-63
2022/05/29 05:19:59;;;;;;;27.93;2.90;;;24.80;2.20;;;;;;5027135;28;20471;-63
2022/05/29 05:22:26;;;;;;;28.30;3.07;;;25.50;1.40;;;;;;5027042;28;20455;-63
2022/05/29 05:24:52;;;;;;;27.43;2.70;;;26.10;1.00;;;;;;5025069;28;20479;-63
2022/05/29 05:27:19;;;;;;;28.80;3.50;;;26.70;1.00;;;;;;5027092;28;20487;-63
2022/05/29 05:29:46;;;;;;;30.70;3.50;;;27.30;1.00;;;;;;5026615;28;20588;-63
2022/05/29 05:32:14;;;;;;;26.87;2.30;;;27.80;1.00;;;;;;5008828;28;20476;-63
2022/05/29 05:34:42;;;;;;;29.67;2.87;;;28.30;1.00;;;;;;5007340;28;20471;-63
2022/05/29 05:37:09;;;;;;;27.17;2.83;;;28.60;1.00;;;;;;5005751;28;20487;-63
2022/05/29 05:39:36;;;;;;;26.63;2.70;;;29.10;1.00;;;;;;5007381;28;20845;-63
2022/05/29 05:42:03;;;;;;;27.10;2.93;;;29.70;1.00;;;;;;5006908;28;20460;-63
2022/05/29 05:44:29;;;;;;;27.40;2.60;;;30.20;1.00;;;;;;5004976;28;20459;-63
2022/05/29 05:46:56;;;;;;;26.90;2.77;;;31.00;1.00;;;;;;4994780;28;20492;-63
2022/05/29 05:49:25;;;;;;;28.07;2.60;;;32.00;1.00;;;;;;4991773;28;20489;-63
2022/05/29 05:51:54;;;;;;;28.13;2.70;;;33.00;1.00;;;;;;4991715;28;20555;-63
2022/05/29 05:54:21;;;;;;;28.00;2.67;;;33.70;1.00;;;;;;4990237;28;20468;-63
2022/05/29 05:56:51;;;;;;;26.97;2.50;;;34.50;1.00;;;;;;4990173;28;20487;-63
2022/05/29 05:59:18;;;;;;;25.73;2.20;;;35.10;1.00;;;;;;4990182;28;21058;-63
2022/05/29 06:01:45;;;;;;;24.87;2.10;;;35.30;1.00;;;;;;4990301;28;20576;-63
2022/05/29 06:04:11;;;;;;;25.60;2.50;;;35.70;1.00;;;;;;4990475;28;20467;-63
2022/05/29 06:06:40;;;;;;;26.13;3.00;;;36.20;1.00;;;;;;4992659;28;20467;-63
2022/05/29 06:09:06;;;;;;;24.73;2.47;;;36.60;1.00;;;;;;4999569;28;20468;-63
2022/05/29 06:11:39;;;;;;;26.57;2.60;;;37.10;1.00;;;;;;4990649;28;20463;-63
2022/05/29 06:14:06;;;;;;;26.97;3.23;;;37.50;1.00;;;;;;4990336;28;20984;-63
2022/05/29 06:16:33;;;;;;;26.07;2.80;;;37.90;1.00;;;;;;4989896;28;20887;-64
2022/05/29 06:19:00;;;;;;;24.40;2.60;;;38.30;1.00;;;;;;5006706;28;20977;-63
2022/05/29 06:21:27;;;;;;;25.00;2.13;;;38.80;1.00;;;;;;5009664;28;20466;-64
2022/05/29 06:23:55;;;;;;;24.10;2.10;;;39.20;1.00;;;;;;5009854;28;20455;-64
2022/05/29 06:26:22;;;;;;;26.90;2.50;;;39.60;1.00;;;;;;5010000;28;20906;-64
2022/05/29 06:28:49;;;;;;;24.43;2.53;;;40.10;1.00;;;;;;4995022;28;20468;-64
2022/05/29 06:31:16;;;;;;;23.57;2.00;;;40.40;1.00;;;;;;4989376;28;21009;-64
2022/05/29 06:33:42;;;;;;;23.97;2.30;;;40.50;1.00;;;;;;4989496;28;20463;-63
2022/05/29 06:36:11;;;;;;;23.23;1.90;;;40.70;1.00;;;;;;4989590;28;20944;-64
2022/05/29 06:38:39;;;;;;;23.70;2.07;;;41.10;1.00;;;;;;4996321;28;20487;-64
2022/05/29 06:41:08;;;;;;;24.50;2.40;;;41.60;1.00;;;;;;5008529;28;20972;-64
2022/05/29 06:43:35;;;;;;;24.60;2.47;;;41.70;1.00;;;;;;5009141;28;20467;-64
2022/05/29 06:46:03;;;;;;;23.90;1.83;;;41.50;1.00;;;;;;5008864;28;20459;-64
2022/05/29 06:48:31;;;;;;;24.50;2.33;;;41.70;1.00;;;;;;5004583;28;20488;-64
2022/05/29 06:51:03;;;;;;;25.70;2.50;;;42.20;1.00;;;;;;4989281;28;20481;-64
2022/05/29 06:53:30;;;;;;;23.27;2.10;;;41.40;1.00;;;;;;4989826;28;20463;-64
2022/05/29 06:55:57;;;;;;;24.30;2.10;;;39.30;1.00;;;;;;4989486;28;20460;-64
2022/05/29 06:58:26;;;;;;;25.30;2.30;;;37.70;1.00;;;;;;4989074;28;20648;-64
2022/05/29 07:09:06;;;;;;;24.27;2.60;;;38.90;1.00;;;;;;4989672;28;20468;-64
2022/05/29 07:11:38;;;;;;;23.80;2.10;;;40.00;1.00;;;;;;5008563;28;20487;-63
2022/05/29 07:14:07;;;;;;;26.20;2.80;;;40.80;1.00;;;;;;5007749;28;21126;-64
2022/05/29 07:16:35;;;;;;;24.07;2.77;;;39.50;1.00;;;;;;5008369;28;20522;-62
2022/05/29 07:19:04;;;;;;;25.50;2.80;;;37.30;1.00;;;;;;5008688;28;20463;-61
2022/05/29 07:21:33;;;;;;;25.70;2.97;;;35.30;1.00;;;;;;5007161;28;20495;-61
2022/05/29 07:24:00;;;;;;;25.30;2.50;;;33.50;1.00;;;;;;5007059;28;20464;-61
2022/05/29 07:26:27;;;;;;;26.90;2.83;;;32.10;1.00;;;;;;5008148;28;20605;-62
2022/05/29 07:28:53;;;;;;;28.20;3.33;;;31.10;1.00;;;;;;5007944;28;20466;-61
2022/05/29 07:31:22;;;;;;;27.07;3.33;;;30.10;1.00;;;;;;5006145;28;20475;-61
2022/05/29 07:33:49;;;;;;;28.17;4.20;;;29.30;1.00;;;;;;5008421;28;20626;-61
2022/05/29 07:36:19;;;;;;;28.07;2.60;;;28.50;1.00;;;;;;5007749;28;20547;-61
2022/05/29 07:38:46;;;;;;;27.53;2.77;;;29.10;1.00;;;;;;5007324;28;20511;-61
2022/05/29 07:43:57;;;;;;;29.40;2.80;;;31.70;1.00;;;;;;5008861;28;20423;-61
2022/05/29 07:46:25;;;;;;;27.27;3.27;;;30.40;1.00;;;;;;5009063;28;20456;-61
2022/05/29 07:48:52;;;;;;;27.47;2.73;;;30.10;1.00;;;;;;5008594;28;20920;-61
2022/05/29 07:51:19;;;;;;;26.80;3.03;;;31.90;1.00;;;;;;5001085;28;20846;-61
2022/05/29 07:53:47;;;;;;;28.97;4.00;;;31.90;1.00;;;;;;4989696;28;21048;-61
2022/05/29 07:56:16;;;;;;;26.80;2.90;;;33.30;1.00;;;;;;4988744;28;20469;-61
2022/05/29 07:58:43;;;;;;;25.67;2.50;;;36.20;1.00;;;;;;4987954;28;20524;-61
2022/05/29 08:01:11;;;;;;;25.93;3.20;;;38.80;1.00;;;;;;4994307;28;21008;-61
2022/05/29 08:03:39;;;;;;;24.10;2.70;;;40.80;1.00;;;;;;4996823;28;20463;-61
2022/05/29 08:06:06;;;;;;;24.47;2.50;;;42.40;1.00;;;;;;4993116;28;20455;-62
2022/05/29 08:08:33;;;;;;;24.43;2.70;;;43.60;1.00;;;;;;4996234;28;20484;-61
2022/05/29 08:11:01;;;;;;;24.30;2.17;;;44.50;1.00;;;;;;4986221;28;20477;-62
2022/05/29 08:13:28;;;;;;;23.17;2.60;;;45.30;1.00;;;;;;5002639;28;20581;-61
2022/05/29 08:15:55;;;;;;;23.80;1.90;;;45.80;1.00;;;;;;4987139;28;20460;-61
2022/05/29 08:18:22;;;;;;;22.60;2.07;;;46.20;1.00;;;;;;4998867;28;20484;-62
2022/05/29 08:20:52;;;;;;;22.90;2.00;;;46.60;1.00;;;;;;5007004;28;20452;-61
2022/05/29 08:23:19;;;;;;;23.77;2.13;;;47.10;1.00;;;;;;5005714;28;20448;-62
2022/05/29 08:31:23;;;;;;;23.23;2.47;;;48.00;1.00;;;;;;5000635;28;20483;-62
2022/05/29 08:33:50;;;;;;;21.80;1.80;;;48.40;1.00;;;;;;5002220;28;20803;-62
2022/05/29 08:36:24;;;;;;;21.80;1.83;;;48.30;1.00;;;;;;4998659;28;20459;-62
2022/05/29 08:38:52;;;;;;;22.00;1.70;;;48.40;1.00;;;;;;4996521;28;20456;-61
2022/05/29 08:41:22;;;;;;;23.50;1.80;;;49.00;1.00;;;;;;5017938;28;20533;-61
2022/05/29 08:44:00;;;;;;;23.03;2.00;;;49.50;1.00;;;;;;4999880;28;21151;-62
2022/05/29 08:46:32;;;;;;;23.17;1.97;;;50.00;1.00;;;;;;5003614;28;20491;-62
2022/05/29 08:48:59;;;;;;;21.53;1.70;;;50.00;1.00;;;;;;5006528;28;20462;-62
2022/05/29 08:51:51;;;;;;;22.97;2.20;;;50.20;1.00;;;;;;5005930;28;20517;-62
2022/05/29 08:54:24;;;;;;;21.10;1.43;;;50.40;1.00;;;;;;5007706;28;20444;-62
2022/05/29 08:57:01;;;;;;;20.27;1.50;;;50.40;1.00;;;;;;5003249;28;20484;-62
2022/05/29 08:59:41;;;;;;;21.23;1.83;;;50.50;1.00;;;;;;5008821;28;20474;-62
2022/05/29 09:02:18;;;;;;;21.70;2.20;;;50.60;1.00;;;;;;5007582;28;20472;-61
2022/05/29 09:04:50;;;;;;;20.77;1.60;;;49.60;1.00;;;;;;5007866;28;20435;-61
2022/05/29 09:07:22;;;;;;;21.10;1.83;;;49.60;1.00;;;;;;5006203;28;21064;-62
2022/05/29 09:09:54;;;;;;;22.27;2.00;;;50.30;1.00;;;;;;5009037;28;20547;-62
2022/05/29 09:12:25;;;;;;;21.67;1.80;;;50.50;1.00;;;;;;5007734;28;20984;-62
2022/05/29 09:14:56;;;;;;;21.67;1.70;;;50.90;1.00;;;;;;5008751;28;20985;-62
2022/05/29 09:17:31;;;;;;;23.10;2.53;;;51.10;1.00;;;;;;5006898;28;20476;-62
2022/05/29 09:20:01;;;;;;;20.73;1.87;;;50.90;1.00;;;;;;5008164;28;20466;-62
2022/05/29 09:22:34;;;;;;;21.23;1.77;;;49.90;1.00;;;;;;5012015;28;20444;-62
2022/05/29 09:25:06;;;;;;;24.43;2.23;;;49.40;1.00;;;;;;5011623;28;20964;-61
2022/05/29 09:27:35;;;;;;;24.63;2.50;;;48.40;1.00;;;;;;5010635;28;20502;-61
2022/05/29 09:30:01;;;;;;;24.40;2.37;;;44.50;1.00;;;;;;5012399;28;20455;-62
2022/05/29 09:32:30;;;;;;;25.00;2.37;;;41.00;1.00;;;;;;5011336;28;20471;-61
2022/05/29 09:35:08;;;;;;;25.30;2.27;;;38.40;1.00;;;;;;5012624;28;20481;-61
2022/05/29 09:37:43;;;;;;;25.10;2.00;;;36.80;1.00;;;;;;5012270;28;20479;-61
2022/05/29 09:40:17;;;;;;;24.70;2.30;;;35.70;1.00;;;;;;5011713;28;20462;-61
2022/05/29 09:42:44;;;;;;;25.67;2.17;;;34.50;1.00;;;;;;5011475;28;20444;-61
2022/05/29 09:45:15;;;;;;;26.40;2.83;;;33.60;1.00;;;;;;5011745;28;20821;-62
2022/05/29 09:50:43;;;;;;;26.90;2.47;;;31.40;1.00;;;;;;5009604;28;20761;-61
2022/05/29 09:53:15;;;;;;;27.00;2.50;;;30.40;1.00;;;;;;4997890;28;20448;-61
2022/05/29 09:55:50;;;;;;;26.70;2.60;;;29.80;1.00;;;;;;5009642;28;20455;-61
2022/05/29 09:58:25;;;;;;;28.17;3.30;;;29.30;1.00;;;;;;5010485;28;20578;-61
2022/05/29 10:01:01;;;;;;;27.20;2.90;;;28.90;1.00;;;;;;4993504;28;20860;-61
2022/05/29 10:03:40;;;;;;;29.30;2.90;;;28.50;1.00;;;;;;4991777;28;20448;-61
2022/05/29 10:06:14;;;;;;;27.70;2.67;;;27.90;1.00;;;;;;4991318;28;20452;-61
2022/05/29 10:08:44;;;;;;;28.50;2.60;;;27.50;1.00;;;;;;4991220;28;20477;-61
2022/05/29 10:11:16;;;;;;;28.40;2.60;;;27.30;1.00;;;;;;5006945;28;20471;-63
2022/05/29 10:13:45;;;;;;;29.93;3.17;;;27.00;1.00;;;;;;4992854;28;20969;-63
2022/05/29 10:16:14;;;;;;;29.20;3.20;;;26.80;1.00;;;;;;4991140;28;20740;-63
2022/05/29 10:18:43;;;;;;;27.77;2.47;;;26.60;1.00;;;;;;4991393;28;20481;-63
2022/05/29 10:21:15;;;;;;;28.17;3.10;;;26.50;1.00;;;;;;5005288;28;20467;-63
2022/05/29 10:23:49;;;;;;;28.60;2.70;;;26.30;1.00;;;;;;5009705;28;20479;-63
2022/05/29 10:26:27;;;;;;;30.37;2.37;;;26.10;1.00;;;;;;5010259;28;20463;-63
2022/05/29 10:28:54;;;;;;;28.20;3.07;;;25.80;1.00;;;;;;5010815;28;21010;-63
2022/05/29 10:31:24;;;;;;;27.17;2.47;;;25.50;1.00;;;;;;5006747;28;20486;-63
2022/05/29 10:34:05;;;;;;;30.53;2.80;;;25.50;1.00;;;;;;5005291;28;20452;-63
2022/05/29 10:36:32;;;;;;;27.80;3.13;;;25.30;1.00;;;;;;4993582;28;20985;-63
2022/05/29 10:39:10;;;;;;;28.77;2.90;;;25.30;1.00;;;;;;4995170;28;20487;-63
2022/05/29 10:41:40;;;;;;;28.00;3.00;;;25.40;1.00;;;;;;4999352;28;20483;-63
2022/05/29 10:44:09;;;;;;;29.23;3.17;;;25.30;1.00;;;;;;5001990;28;20475;-63
2022/05/29 10:46:43;;;;;;;27.43;2.83;;;25.10;1.00;;;;;;4994630;28;20518;-63
2022/05/29 10:49:26;;;;;;;28.20;3.10;;;24.90;1.00;;;;;;4991343;28;20453;-63
2022/05/29 10:52:12;;;;;;;28.90;3.33;;;24.60;1.00;;;;;;4998214;28;20480;-67
2022/05/29 10:54:59;;;;;;;28.90;3.40;;;24.40;1.00;;;;;;5010437;28;20444;-63
2022/05/29 10:57:44;;;;;;;28.67;3.47;;;24.20;1.00;;;;;;4997898;28;20479;-63
2022/05/29 11:00:23;;;;;;;27.40;2.73;;;24.00;1.00;;;;;;4991221;28;20536;-63
2022/05/29 11:03:22;;;;;;;29.00;3.10;;;23.70;1.00;;;;;;5000714;28;20472;-63
2022/05/29 11:06:08;;;;;;;29.60;3.13;;;23.40;1.00;;;;;;4997207;28;20453;-62
2022/05/29 11:08:45;;;;;;;30.00;3.80;;;23.10;1.90;;;;;;4997516;28;20578;-63
2022/05/29 11:11:26;;;;;;;28.20;3.73;;;22.90;2.40;;;;;;4991378;28;20471;-63
2022/05/29 11:14:22;;;;;;;28.03;3.30;;;22.70;3.30;;;;;;4990623;28;20460;-63
2022/05/29 11:17:02;;;;;;;28.77;4.00;;;22.50;3.90;;;;;;4993131;28;20523;-63
2022/05/29 11:19:42;;;;;;;29.70;3.27;;;22.50;4.10;;;;;;4995263;28;21025;-63
2022/05/29 11:22:21;;;;;;;28.87;5.17;;;22.50;4.00;;;;;;4995747;28;20539;-63
2022/05/29 11:25:12;;;;;;;29.60;3.67;;;22.40;3.20;;;;;;4998019;28;20465;-63
2022/05/29 11:28:04;;;;;;;28.10;3.90;;;22.30;3.90;;;;;;5002510;28;20485;-63
2022/05/29 11:30:38;;;;;;;30.13;4.07;;;22.20;3.20;;;;;;4994384;28;21016;-63
2022/05/29 11:33:34;;;;;;;30.07;7.03;;;22.10;2.80;;;;;;5010805;28;21019;-63
2022/05/29 11:36:17;;;;;;;30.40;6.33;;;21.90;2.90;;;;;;5019463;28;20466;-63
2022/05/29 11:39:08;;;;;;;30.90;6.90;;;21.70;3.60;;;;;;5021445;28;20470;-63
2022/05/29 11:41:40;;;;;;;31.00;7.10;;;21.60;3.70;;;;;;5013068;28;20489;-63
2022/05/29 11:44:18;;;;;;;30.97;4.63;;;21.40;3.80;;;;;;5022481;28;21157;-63
2022/05/29 11:52:26;;;;;;;30.90;3.50;;;20.90;3.60;;;;;;5009809;28;20846;-63
2022/05/29 11:55:02;;;;;;;29.07;3.37;;;20.70;3.40;;;;;;5006452;28;20444;-63
2022/05/29 11:57:36;;;;;;;29.97;3.20;;;20.40;3.70;;;;;;5016941;28;20573;-62
2022/05/29 12:00:10;;;;;;;28.63;3.43;;;20.30;5.40;;;;;;5024253;28;20466;-62
2022/05/29 12:02:46;;;;;;;29.73;2.90;;;20.10;6.20;;;;;;5019809;28;20463;-63
2022/05/29 12:05:27;;;;;;;28.73;3.73;;;19.80;6.80;;;;;;5025119;28;20458;-63
2022/05/29 12:07:59;;;;;;;28.40;3.20;;;19.60;7.50;;;;;;5024806;28;20846;-63
2022/05/29 12:10:31;;;;;;;28.17;3.20;;;19.30;7.90;;;;;;5024718;28;20446;-62
2022/05/29 12:13:02;;;;;;;27.57;2.50;;;19.10;8.60;;;;;;5006470;28;20603;-63
2022/05/29 12:15:31;;;;;;;29.70;3.20;;;18.90;9.40;;;;;;5012053;28;20871;-62
2022/05/29 12:18:02;;;;;;;27.70;3.27;;;18.70;12.00;;;;;;5019281;28;20491;-62
2022/05/29 12:20:40;;;;;;;27.07;3.90;;;18.50;13.70;;;;;;5008784;28;20475;-62
2022/05/29 12:23:16;;;;;;;29.20;4.20;;;18.10;15.30;;;;;;5011148;28;20486;-62
2022/05/29 12:25:48;;;;;;;29.20;3.67;;;17.80;15.10;;;;;;5011437;28;20495;-62
2022/05/29 12:28:22;;;;;;;28.80;4.33;;;17.40;15.40;;;;;;5008308;28;20487;-62
2022/05/29 12:30:51;;;;;;;26.83;3.90;;;17.10;16.80;;;;;;5008910;28;21040;-62
2022/05/29 12:33:21;;;;;;;27.30;4.40;;;17.00;18.10;;;;;;5014693;28;20459;-62
2022/05/29 12:35:57;;;;;;;25.60;3.50;;;16.90;17.90;;;;;;5011630;28;20840;-63
2022/05/29 12:38:42;;;;;;;26.40;4.97;;;16.90;19.80;;;;;;5012600;28;20505;-63
2022/05/29 12:41:24;;;;;;;25.70;3.63;;;16.90;20.20;;;;;;5011716;28;20455;-63
2022/05/29 12:44:30;;;;;;;27.30;4.30;;;17.00;19.50;;;;;;5015809;28;20462;-63
2022/05/29 12:47:29;;;;;;;27.00;4.50;;;17.10;18.90;;;;;;5007491;28;20490;-63
2022/05/29 12:50:32;;;;;;;27.80;4.07;;;17.30;20.30;;;;;;5009508;28;21084;-63
2022/05/29 12:53:27;;;;;;;28.10;3.70;;;17.30;20.00;;;;;;5011552;28;20487;-62
2022/05/29 12:56:14;;;;;;;31.30;3.33;;;17.30;20.00;;;;;;4973759;28;20486;-63
2022/05/29 12:59:00;;;;;;;29.10;2.90;;;17.40;19.40;;;;;;5016340;28;20602;-63
2022/05/29 13:01:45;;;;;;;26.43;3.33;;;17.40;19.30;;;;;;5021860;28;20483;-62
2022/05/29 13:04:54;;;;;;;28.90;3.70;;;17.40;18.90;;;;;;5019614;28;21021;-62
2022/05/29 13:07:24;;;;;;;29.03;3.70;;;17.60;18.70;;;;;;4962079;28;20479;-63
2022/05/29 13:10:14;;;;;;;28.13;3.80;;;17.80;18.60;;;;;;5019614;28;21057;-63
2022/05/29 13:12:48;;;;;;;30.30;3.70;;;18.00;18.80;;;;;;5014621;28;20528;-63
2022/05/29 13:15:26;;;;;;;28.60;3.50;;;18.10;18.20;;;;;;5019494;28;20478;-63
2022/05/29 13:18:01;;;;;;;28.07;3.50;;;18.10;17.20;;;;;;5012700;28;20481;-62
2022/05/29 13:20:30;;;;;;;28.83;3.33;;;18.10;17.10;;;;;;5013682;28;20494;-63
2022/05/29 13:23:01;;;;;;;28.20;3.70;;;18.10;17.60;;;;;;5019657;28;20460;-62
2022/05/29 13:25:30;;;;;;;28.70;3.43;;;18.20;17.50;;;;;;5018130;28;20478;-62
2022/05/29 13:27:59;;;;;;;30.97;3.67;;;18.20;16.90;;;;;;5012253;28;20479;-62
2022/05/29 13:31:07;;;;;;;29.00;4.13;;;18.20;16.50;;;;;;5019885;28;20451;-63
2022/05/29 13:33:54;;;;;;;30.57;7.47;;;18.20;15.90;;;;;;5019847;28;20840;-62
2022/05/29 13:37:01;;;;;;;29.80;5.40;;;18.20;15.60;;;;;;5013034;28;20512;-63
2022/05/29 13:39:51;;;;;;;31.83;4.67;;;18.10;16.30;;;;;;5017867;28;20467;-63
2022/05/29 13:42:30;;;;;;;31.30;4.67;;;18.10;16.00;;;;;;5013001;28;20467;-62
2022/05/29 13:44:57;;;;;;;31.17;4.23;;;18.00;16.20;;;;;;5015590;28;20959;-63